sensor_id;sensor_type;location;lat;lon;timestamp;P1;durP1;ratioP1;P2;durP2;ratioP2
76962;SDS011;65902;51.452;7.198;2023-03-13T00:00:49;13.55;;;8.07;;
76962;SDS011;65902;51.452;7.198;2023-03-13T00:01:53;14.35;;;5.07;;
76962;SDS011;65902;51.452;7.198;2023-03-13T00:02:54;15.25;;;5.45;;
76962;SDS011;65902;51.452;7.198;2023-03-13T00:03:57;10.07;;;5.38;;
76962;SDS011;65902;51.452;7.198;2023-03-13T00:04:57;12.82;;;4.20;;
76962;SDS011;65902;51.452;7.198;2023-03-13T00:06:04;18.35;;;5.07;;
76962;SDS011;65902;51.452;7.198;2023-03-13T00:07:05;16.83;;;5.20;;
76962;SDS011;65902;51.452;7.198;2023-03-13T00:08:06;13.10;;;3.92;;
76962;SDS011;65902;51.452;7.198;2023-03-13T00:09:13;13.48;;;5.40;;
76962;SDS011;65902;51.452;7.198;2023-03-13T00:10:14;14.63;;;3.97;;
76962;SDS011;65902;51.452;7.198;2023-03-13T00:11:15;14.70;;;4.00;;
76962;SDS011;65902;51.452;7.198;2023-03-13T00:12:16;16.60;;;5.13;;
76962;SDS011;65902;51.452;7.198;2023-03-13T00:13:21;8.55;;;4.80;;
76962;SDS011;65902;51.452;7.198;2023-03-13T00:14:22;12.48;;;5.30;;
76962;SDS011;65902;51.452;7.198;2023-03-13T00:15:22;12.95;;;6.07;;
76962;SDS011;65902;51.452;7.198;2023-03-13T00:16:23;14.18;;;4.32;;
76962;SDS011;65902;51.452;7.198;2023-03-13T00:18:29;11.70;;;4.35;;
76962;SDS011;65902;51.452;7.198;2023-03-13T00:19:32;10.85;;;3.78;;
76962;SDS011;65902;51.452;7.198;2023-03-13T00:20:33;8.13;;;4.43;;
76962;SDS011;65902;51.452;7.198;2023-03-13T00:21:34;12.77;;;3.60;;
76962;SDS011;65902;51.452;7.198;2023-03-13T00:23:37;9.10;;;5.25;;
76962;SDS011;65902;51.452;7.198;2023-03-13T00:24:44;8.80;;;3.70;;
76962;SDS011;65902;51.452;7.198;2023-03-13T00:25:54;9.73;;;3.85;;
76962;SDS011;65902;51.452;7.198;2023-03-13T00:27:01;13.80;;;5.72;;
76962;SDS011;65902;51.452;7.198;2023-03-13T00:28:04;12.68;;;5.88;;
76962;SDS011;65902;51.452;7.198;2023-03-13T00:29:05;9.75;;;3.22;;
76962;SDS011;65902;51.452;7.198;2023-03-13T00:30:09;8.48;;;3.60;;
76962;SDS011;65902;51.452;7.198;2023-03-13T00:31:19;8.40;;;4.05;;
76962;SDS011;65902;51.452;7.198;2023-03-13T00:32:23;9.18;;;4.07;;
76962;SDS011;65902;51.452;7.198;2023-03-13T00:33:24;17.58;;;4.88;;
76962;SDS011;65902;51.452;7.198;2023-03-13T00:34:26;13.02;;;4.63;;
76962;SDS011;65902;51.452;7.198;2023-03-13T00:35:27;11.55;;;4.45;;
76962;SDS011;65902;51.452;7.198;2023-03-13T00:36:31;12.18;;;4.03;;
76962;SDS011;65902;51.452;7.198;2023-03-13T00:37:33;11.80;;;3.78;;
76962;SDS011;65902;51.452;7.198;2023-03-13T00:38:36;12.43;;;4.25;;
76962;SDS011;65902;51.452;7.198;2023-03-13T00:39:39;14.00;;;4.15;;
76962;SDS011;65902;51.452;7.198;2023-03-13T00:40:42;9.85;;;4.95;;
76962;SDS011;65902;51.452;7.198;2023-03-13T00:41:46;17.25;;;4.97;;
76962;SDS011;65902;51.452;7.198;2023-03-13T00:42:49;12.80;;;3.90;;
76962;SDS011;65902;51.452;7.198;2023-03-13T00:43:50;19.05;;;4.50;;
76962;SDS011;65902;51.452;7.198;2023-03-13T00:44:51;10.10;;;3.97;;
76962;SDS011;65902;51.452;7.198;2023-03-13T00:45:55;17.17;;;6.53;;
76962;SDS011;65902;51.452;7.198;2023-03-13T00:46:56;12.85;;;3.50;;
76962;SDS011;65902;51.452;7.198;2023-03-13T00:47:59;12.80;;;3.65;;
76962;SDS011;65902;51.452;7.198;2023-03-13T00:48:59;14.93;;;9.23;;
76962;SDS011;65902;51.452;7.198;2023-03-13T00:50:00;11.02;;;4.18;;
76962;SDS011;65902;51.452;7.198;2023-03-13T00:51:03;15.10;;;5.15;;
76962;SDS011;65902;51.452;7.198;2023-03-13T00:52:05;12.38;;;5.43;;
76962;SDS011;65902;51.452;7.198;2023-03-13T00:53:09;12.25;;;3.97;;
76962;SDS011;65902;51.452;7.198;2023-03-13T00:54:09;9.38;;;4.18;;
76962;SDS011;65902;51.452;7.198;2023-03-13T00:55:13;9.98;;;4.32;;
76962;SDS011;65902;51.452;7.198;2023-03-13T00:56:19;12.77;;;6.00;;
76962;SDS011;65902;51.452;7.198;2023-03-13T00:57:22;10.93;;;3.97;;
76962;SDS011;65902;51.452;7.198;2023-03-13T00:58:27;13.75;;;5.95;;
76962;SDS011;65902;51.452;7.198;2023-03-13T00:59:31;10.77;;;5.03;;
76962;SDS011;65902;51.452;7.198;2023-03-13T01:00:31;12.18;;;4.28;;
76962;SDS011;65902;51.452;7.198;2023-03-13T01:01:33;18.83;;;5.07;;
76962;SDS011;65902;51.452;7.198;2023-03-13T01:02:39;15.32;;;7.68;;
76962;SDS011;65902;51.452;7.198;2023-03-13T01:03:41;16.08;;;5.05;;
76962;SDS011;65902;51.452;7.198;2023-03-13T01:04:42;11.88;;;4.18;;
76962;SDS011;65902;51.452;7.198;2023-03-13T01:05:53;12.60;;;3.95;;
76962;SDS011;65902;51.452;7.198;2023-03-13T01:06:57;20.83;;;4.60;;
76962;SDS011;65902;51.452;7.198;2023-03-13T01:08:00;9.60;;;4.45;;
76962;SDS011;65902;51.452;7.198;2023-03-13T01:09:07;10.20;;;4.57;;
76962;SDS011;65902;51.452;7.198;2023-03-13T01:10:11;13.10;;;3.72;;
76962;SDS011;65902;51.452;7.198;2023-03-13T01:11:13;12.40;;;4.60;;
76962;SDS011;65902;51.452;7.198;2023-03-13T01:13:16;9.38;;;4.35;;
76962;SDS011;65902;51.452;7.198;2023-03-13T01:14:17;9.05;;;3.70;;
76962;SDS011;65902;51.452;7.198;2023-03-13T01:15:18;12.52;;;3.97;;
76962;SDS011;65902;51.452;7.198;2023-03-13T01:16:19;10.20;;;3.85;;
76962;SDS011;65902;51.452;7.198;2023-03-13T01:17:20;10.32;;;5.25;;
76962;SDS011;65902;51.452;7.198;2023-03-13T01:18:21;7.20;;;4.55;;
76962;SDS011;65902;51.452;7.198;2023-03-13T01:19:27;13.82;;;4.30;;
76962;SDS011;65902;51.452;7.198;2023-03-13T01:20:28;11.68;;;4.22;;
76962;SDS011;65902;51.452;7.198;2023-03-13T01:21:34;11.75;;;3.83;;
76962;SDS011;65902;51.452;7.198;2023-03-13T01:22:37;9.77;;;3.50;;
76962;SDS011;65902;51.452;7.198;2023-03-13T01:23:38;17.15;;;3.67;;
76962;SDS011;65902;51.452;7.198;2023-03-13T01:24:39;6.53;;;3.70;;
76962;SDS011;65902;51.452;7.198;2023-03-13T01:25:40;12.43;;;4.13;;
76962;SDS011;65902;51.452;7.198;2023-03-13T01:26:40;10.73;;;4.15;;
76962;SDS011;65902;51.452;7.198;2023-03-13T01:27:44;8.23;;;3.63;;
76962;SDS011;65902;51.452;7.198;2023-03-13T01:28:50;11.05;;;3.25;;
76962;SDS011;65902;51.452;7.198;2023-03-13T01:29:53;14.10;;;4.35;;
76962;SDS011;65902;51.452;7.198;2023-03-13T01:30:56;15.75;;;4.03;;
76962;SDS011;65902;51.452;7.198;2023-03-13T01:31:58;17.00;;;6.95;;
76962;SDS011;65902;51.452;7.198;2023-03-13T01:33:04;9.50;;;3.22;;
76962;SDS011;65902;51.452;7.198;2023-03-13T01:34:04;12.95;;;3.92;;
76962;SDS011;65902;51.452;7.198;2023-03-13T01:35:09;9.07;;;3.47;;
76962;SDS011;65902;51.452;7.198;2023-03-13T01:36:13;9.70;;;3.65;;
76962;SDS011;65902;51.452;7.198;2023-03-13T01:37:16;12.88;;;3.78;;
76962;SDS011;65902;51.452;7.198;2023-03-13T01:38:19;9.25;;;3.40;;
76962;SDS011;65902;51.452;7.198;2023-03-13T01:39:23;10.85;;;3.75;;
76962;SDS011;65902;51.452;7.198;2023-03-13T01:40:27;14.30;;;4.10;;
76962;SDS011;65902;51.452;7.198;2023-03-13T01:41:32;12.88;;;4.03;;
76962;SDS011;65902;51.452;7.198;2023-03-13T01:42:47;9.00;;;3.72;;
76962;SDS011;65902;51.452;7.198;2023-03-13T01:43:58;12.98;;;3.92;;
76962;SDS011;65902;51.452;7.198;2023-03-13T01:45:01;16.08;;;4.13;;
76962;SDS011;65902;51.452;7.198;2023-03-13T01:47:27;12.18;;;3.05;;
76962;SDS011;65902;51.452;7.198;2023-03-13T01:49:56;9.65;;;3.58;;
76962;SDS011;65902;51.452;7.198;2023-03-13T01:50:59;9.20;;;3.42;;
76962;SDS011;65902;51.452;7.198;2023-03-13T01:52:04;8.80;;;5.10;;
76962;SDS011;65902;51.452;7.198;2023-03-13T01:53:28;6.80;;;3.20;;
76962;SDS011;65902;51.452;7.198;2023-03-13T01:54:35;13.73;;;5.22;;
76962;SDS011;65902;51.452;7.198;2023-03-13T01:55:36;11.35;;;4.50;;
76962;SDS011;65902;51.452;7.198;2023-03-13T01:58:16;13.48;;;4.60;;
76962;SDS011;65902;51.452;7.198;2023-03-13T01:59:18;13.70;;;3.85;;
76962;SDS011;65902;51.452;7.198;2023-03-13T02:00:28;11.85;;;3.78;;
76962;SDS011;65902;51.452;7.198;2023-03-13T02:01:31;11.60;;;4.50;;
76962;SDS011;65902;51.452;7.198;2023-03-13T02:02:41;12.98;;;5.35;;
76962;SDS011;65902;51.452;7.198;2023-03-13T02:03:44;13.00;;;4.38;;
76962;SDS011;65902;51.452;7.198;2023-03-13T02:04:49;10.70;;;3.95;;
76962;SDS011;65902;51.452;7.198;2023-03-13T02:06:00;13.23;;;5.13;;
76962;SDS011;65902;51.452;7.198;2023-03-13T02:07:02;8.82;;;4.10;;
76962;SDS011;65902;51.452;7.198;2023-03-13T02:08:16;14.82;;;4.10;;
76962;SDS011;65902;51.452;7.198;2023-03-13T02:09:22;11.13;;;4.22;;
76962;SDS011;65902;51.452;7.198;2023-03-13T02:11:27;7.43;;;3.10;;
76962;SDS011;65902;51.452;7.198;2023-03-13T02:12:32;8.60;;;3.53;;
76962;SDS011;65902;51.452;7.198;2023-03-13T02:13:35;10.35;;;3.85;;
76962;SDS011;65902;51.452;7.198;2023-03-13T02:15:39;12.18;;;3.75;;
76962;SDS011;65902;51.452;7.198;2023-03-13T02:16:40;9.80;;;3.78;;
76962;SDS011;65902;51.452;7.198;2023-03-13T02:17:47;12.73;;;4.28;;
76962;SDS011;65902;51.452;7.198;2023-03-13T02:18:54;12.90;;;4.50;;
76962;SDS011;65902;51.452;7.198;2023-03-13T02:19:55;10.85;;;3.88;;
76962;SDS011;65902;51.452;7.198;2023-03-13T02:20:59;11.32;;;5.25;;
76962;SDS011;65902;51.452;7.198;2023-03-13T02:23:27;24.15;;;6.07;;
76962;SDS011;65902;51.452;7.198;2023-03-13T02:24:32;8.80;;;3.47;;
76962;SDS011;65902;51.452;7.198;2023-03-13T02:25:56;13.68;;;4.30;;
76962;SDS011;65902;51.452;7.198;2023-03-13T02:26:58;13.75;;;4.50;;
76962;SDS011;65902;51.452;7.198;2023-03-13T02:29:03;11.77;;;3.72;;
76962;SDS011;65902;51.452;7.198;2023-03-13T02:31:07;11.52;;;3.78;;
76962;SDS011;65902;51.452;7.198;2023-03-13T02:32:07;11.73;;;4.22;;
76962;SDS011;65902;51.452;7.198;2023-03-13T02:33:09;9.75;;;3.80;;
76962;SDS011;65902;51.452;7.198;2023-03-13T02:34:11;9.43;;;4.25;;
76962;SDS011;65902;51.452;7.198;2023-03-13T02:35:15;11.93;;;3.60;;
76962;SDS011;65902;51.452;7.198;2023-03-13T02:36:24;12.32;;;4.35;;
76962;SDS011;65902;51.452;7.198;2023-03-13T02:37:25;11.60;;;3.42;;
76962;SDS011;65902;51.452;7.198;2023-03-13T02:38:28;10.40;;;3.40;;
76962;SDS011;65902;51.452;7.198;2023-03-13T02:39:30;17.42;;;4.05;;
76962;SDS011;65902;51.452;7.198;2023-03-13T02:40:36;13.48;;;3.78;;
76962;SDS011;65902;51.452;7.198;2023-03-13T02:41:39;9.98;;;4.20;;
76962;SDS011;65902;51.452;7.198;2023-03-13T02:42:43;11.35;;;4.05;;
76962;SDS011;65902;51.452;7.198;2023-03-13T02:43:47;11.13;;;4.20;;
76962;SDS011;65902;51.452;7.198;2023-03-13T02:44:51;12.73;;;4.35;;
76962;SDS011;65902;51.452;7.198;2023-03-13T02:47:04;13.20;;;4.10;;
76962;SDS011;65902;51.452;7.198;2023-03-13T02:48:09;19.08;;;4.70;;
76962;SDS011;65902;51.452;7.198;2023-03-13T02:49:42;12.90;;;4.32;;
76962;SDS011;65902;51.452;7.198;2023-03-13T02:50:45;12.63;;;3.70;;
76962;SDS011;65902;51.452;7.198;2023-03-13T02:51:51;8.82;;;4.05;;
76962;SDS011;65902;51.452;7.198;2023-03-13T02:52:59;17.33;;;4.20;;
76962;SDS011;65902;51.452;7.198;2023-03-13T02:54:06;11.80;;;4.88;;
76962;SDS011;65902;51.452;7.198;2023-03-13T02:55:15;19.63;;;5.45;;
76962;SDS011;65902;51.452;7.198;2023-03-13T02:56:22;13.60;;;4.03;;
76962;SDS011;65902;51.452;7.198;2023-03-13T02:57:25;12.88;;;4.15;;
76962;SDS011;65902;51.452;7.198;2023-03-13T02:58:26;10.88;;;3.72;;
76962;SDS011;65902;51.452;7.198;2023-03-13T02:59:33;9.13;;;3.53;;
76962;SDS011;65902;51.452;7.198;2023-03-13T03:00:37;9.45;;;3.40;;
76962;SDS011;65902;51.452;7.198;2023-03-13T03:01:38;10.85;;;3.70;;
76962;SDS011;65902;51.452;7.198;2023-03-13T03:02:43;12.85;;;3.30;;
76962;SDS011;65902;51.452;7.198;2023-03-13T03:03:44;10.43;;;4.15;;
76962;SDS011;65902;51.452;7.198;2023-03-13T03:04:45;13.35;;;3.65;;
76962;SDS011;65902;51.452;7.198;2023-03-13T03:05:47;9.85;;;3.97;;
76962;SDS011;65902;51.452;7.198;2023-03-13T03:06:49;12.80;;;4.47;;
76962;SDS011;65902;51.452;7.198;2023-03-13T03:07:50;9.68;;;4.60;;
76962;SDS011;65902;51.452;7.198;2023-03-13T03:08:51;10.07;;;4.22;;
76962;SDS011;65902;51.452;7.198;2023-03-13T03:09:53;11.52;;;4.55;;
76962;SDS011;65902;51.452;7.198;2023-03-13T03:10:54;6.82;;;3.72;;
76962;SDS011;65902;51.452;7.198;2023-03-13T03:11:54;11.30;;;4.47;;
76962;SDS011;65902;51.452;7.198;2023-03-13T03:12:55;14.48;;;4.55;;
76962;SDS011;65902;51.452;7.198;2023-03-13T03:13:58;8.15;;;3.63;;
76962;SDS011;65902;51.452;7.198;2023-03-13T03:14:59;9.82;;;3.90;;
76962;SDS011;65902;51.452;7.198;2023-03-13T03:16:04;12.43;;;3.78;;
76962;SDS011;65902;51.452;7.198;2023-03-13T03:17:23;10.05;;;3.70;;
76962;SDS011;65902;51.452;7.198;2023-03-13T03:18:24;7.95;;;3.53;;
76962;SDS011;65902;51.452;7.198;2023-03-13T03:19:27;8.13;;;4.13;;
76962;SDS011;65902;51.452;7.198;2023-03-13T03:20:28;8.07;;;4.20;;
76962;SDS011;65902;51.452;7.198;2023-03-13T03:21:34;9.48;;;4.78;;
76962;SDS011;65902;51.452;7.198;2023-03-13T03:22:38;9.25;;;3.22;;
76962;SDS011;65902;51.452;7.198;2023-03-13T03:23:40;8.35;;;3.00;;
76962;SDS011;65902;51.452;7.198;2023-03-13T03:24:43;9.15;;;3.50;;
76962;SDS011;65902;51.452;7.198;2023-03-13T03:25:44;6.80;;;3.95;;
76962;SDS011;65902;51.452;7.198;2023-03-13T03:26:44;13.10;;;4.97;;
76962;SDS011;65902;51.452;7.198;2023-03-13T03:27:46;9.45;;;5.80;;
76962;SDS011;65902;51.452;7.198;2023-03-13T03:28:49;9.23;;;3.45;;
76962;SDS011;65902;51.452;7.198;2023-03-13T03:29:51;9.38;;;3.45;;
76962;SDS011;65902;51.452;7.198;2023-03-13T03:31:02;7.32;;;3.78;;
76962;SDS011;65902;51.452;7.198;2023-03-13T03:32:09;6.57;;;4.38;;
76962;SDS011;65902;51.452;7.198;2023-03-13T03:33:12;9.63;;;3.63;;
76962;SDS011;65902;51.452;7.198;2023-03-13T03:34:15;6.70;;;3.50;;
76962;SDS011;65902;51.452;7.198;2023-03-13T03:35:16;12.07;;;3.60;;
76962;SDS011;65902;51.452;7.198;2023-03-13T03:36:18;9.43;;;4.18;;
76962;SDS011;65902;51.452;7.198;2023-03-13T03:37:29;12.20;;;4.03;;
76962;SDS011;65902;51.452;7.198;2023-03-13T03:38:32;8.88;;;3.45;;
76962;SDS011;65902;51.452;7.198;2023-03-13T03:39:37;13.00;;;4.55;;
76962;SDS011;65902;51.452;7.198;2023-03-13T03:40:40;10.80;;;3.80;;
76962;SDS011;65902;51.452;7.198;2023-03-13T03:41:42;8.80;;;3.58;;
76962;SDS011;65902;51.452;7.198;2023-03-13T03:42:46;8.75;;;3.30;;
76962;SDS011;65902;51.452;7.198;2023-03-13T03:43:51;14.68;;;4.90;;
76962;SDS011;65902;51.452;7.198;2023-03-13T03:44:54;7.20;;;3.80;;
76962;SDS011;65902;51.452;7.198;2023-03-13T03:46:00;9.85;;;3.75;;
76962;SDS011;65902;51.452;7.198;2023-03-13T03:47:03;7.45;;;3.35;;
76962;SDS011;65902;51.452;7.198;2023-03-13T03:48:04;6.15;;;3.13;;
76962;SDS011;65902;51.452;7.198;2023-03-13T03:49:10;6.22;;;3.03;;
76962;SDS011;65902;51.452;7.198;2023-03-13T03:50:13;10.63;;;3.55;;
76962;SDS011;65902;51.452;7.198;2023-03-13T03:52:17;5.55;;;2.75;;
76962;SDS011;65902;51.452;7.198;2023-03-13T03:53:20;6.90;;;3.58;;
76962;SDS011;65902;51.452;7.198;2023-03-13T03:54:21;7.85;;;3.38;;
76962;SDS011;65902;51.452;7.198;2023-03-13T03:55:22;4.15;;;2.75;;
76962;SDS011;65902;51.452;7.198;2023-03-13T03:56:23;5.57;;;3.22;;
76962;SDS011;65902;51.452;7.198;2023-03-13T03:57:24;4.63;;;3.17;;
76962;SDS011;65902;51.452;7.198;2023-03-13T03:58:24;5.85;;;3.25;;
76962;SDS011;65902;51.452;7.198;2023-03-13T03:59:25;7.13;;;3.05;;
76962;SDS011;65902;51.452;7.198;2023-03-13T04:00:26;6.88;;;3.00;;
76962;SDS011;65902;51.452;7.198;2023-03-13T04:01:30;5.93;;;3.03;;
76962;SDS011;65902;51.452;7.198;2023-03-13T04:02:33;5.50;;;3.45;;
76962;SDS011;65902;51.452;7.198;2023-03-13T04:03:36;7.15;;;2.75;;
76962;SDS011;65902;51.452;7.198;2023-03-13T04:04:37;6.10;;;3.47;;
76962;SDS011;65902;51.452;7.198;2023-03-13T04:05:41;6.50;;;2.97;;
76962;SDS011;65902;51.452;7.198;2023-03-13T04:06:43;7.10;;;2.92;;
76962;SDS011;65902;51.452;7.198;2023-03-13T04:07:47;4.55;;;3.08;;
76962;SDS011;65902;51.452;7.198;2023-03-13T04:08:53;6.18;;;3.20;;
76962;SDS011;65902;51.452;7.198;2023-03-13T04:09:58;6.10;;;3.13;;
76962;SDS011;65902;51.452;7.198;2023-03-13T04:10:59;5.60;;;2.90;;
76962;SDS011;65902;51.452;7.198;2023-03-13T04:12:02;6.25;;;2.83;;
76962;SDS011;65902;51.452;7.198;2023-03-13T04:13:07;4.40;;;3.28;;
76962;SDS011;65902;51.452;7.198;2023-03-13T04:14:08;4.65;;;3.22;;
76962;SDS011;65902;51.452;7.198;2023-03-13T04:16:15;4.85;;;2.35;;
76962;SDS011;65902;51.452;7.198;2023-03-13T04:17:15;8.95;;;2.70;;
76962;SDS011;65902;51.452;7.198;2023-03-13T04:18:21;3.33;;;2.53;;
76962;SDS011;65902;51.452;7.198;2023-03-13T04:19:21;6.82;;;3.20;;
76962;SDS011;65902;51.452;7.198;2023-03-13T04:20:22;8.10;;;3.55;;
76962;SDS011;65902;51.452;7.198;2023-03-13T04:21:22;6.85;;;2.75;;
76962;SDS011;65902;51.452;7.198;2023-03-13T04:22:30;7.38;;;3.30;;
76962;SDS011;65902;51.452;7.198;2023-03-13T04:23:31;6.25;;;2.83;;
76962;SDS011;65902;51.452;7.198;2023-03-13T04:24:36;3.70;;;3.33;;
76962;SDS011;65902;51.452;7.198;2023-03-13T04:25:39;5.32;;;3.22;;
76962;SDS011;65902;51.452;7.198;2023-03-13T04:26:40;5.30;;;3.50;;
76962;SDS011;65902;51.452;7.198;2023-03-13T04:27:43;8.50;;;3.63;;
76962;SDS011;65902;51.452;7.198;2023-03-13T04:28:44;5.60;;;2.78;;
76962;SDS011;65902;51.452;7.198;2023-03-13T04:29:45;5.45;;;3.17;;
76962;SDS011;65902;51.452;7.198;2023-03-13T04:30:46;4.45;;;2.58;;
76962;SDS011;65902;51.452;7.198;2023-03-13T04:31:47;5.88;;;3.97;;
76962;SDS011;65902;51.452;7.198;2023-03-13T04:32:48;10.38;;;4.20;;
76962;SDS011;65902;51.452;7.198;2023-03-13T04:33:53;4.88;;;2.70;;
76962;SDS011;65902;51.452;7.198;2023-03-13T04:34:54;5.05;;;2.85;;
76962;SDS011;65902;51.452;7.198;2023-03-13T04:35:58;4.65;;;2.65;;
76962;SDS011;65902;51.452;7.198;2023-03-13T04:36:59;6.60;;;3.20;;
76962;SDS011;65902;51.452;7.198;2023-03-13T04:38:04;7.88;;;2.72;;
76962;SDS011;65902;51.452;7.198;2023-03-13T04:39:14;6.40;;;5.30;;
76962;SDS011;65902;51.452;7.198;2023-03-13T04:40:15;5.65;;;2.85;;
76962;SDS011;65902;51.452;7.198;2023-03-13T04:41:16;6.03;;;3.10;;
76962;SDS011;65902;51.452;7.198;2023-03-13T04:42:20;6.63;;;2.70;;
76962;SDS011;65902;51.452;7.198;2023-03-13T04:43:25;5.60;;;3.05;;
76962;SDS011;65902;51.452;7.198;2023-03-13T04:44:26;6.22;;;3.67;;
76962;SDS011;65902;51.452;7.198;2023-03-13T04:45:30;6.93;;;3.00;;
76962;SDS011;65902;51.452;7.198;2023-03-13T04:46:31;4.97;;;2.95;;
76962;SDS011;65902;51.452;7.198;2023-03-13T04:47:33;5.22;;;3.45;;
76962;SDS011;65902;51.452;7.198;2023-03-13T04:48:34;4.85;;;4.35;;
76962;SDS011;65902;51.452;7.198;2023-03-13T04:49:36;4.20;;;3.80;;
76962;SDS011;65902;51.452;7.198;2023-03-13T04:50:37;4.38;;;3.40;;
76962;SDS011;65902;51.452;7.198;2023-03-13T04:51:38;4.25;;;2.53;;
76962;SDS011;65902;51.452;7.198;2023-03-13T04:52:38;4.47;;;2.55;;
76962;SDS011;65902;51.452;7.198;2023-03-13T04:53:39;6.13;;;3.25;;
76962;SDS011;65902;51.452;7.198;2023-03-13T04:54:39;16.83;;;5.00;;
76962;SDS011;65902;51.452;7.198;2023-03-13T04:55:40;4.47;;;3.08;;
76962;SDS011;65902;51.452;7.198;2023-03-13T04:57:49;3.10;;;2.80;;
76962;SDS011;65902;51.452;7.198;2023-03-13T04:58:55;4.88;;;2.78;;
76962;SDS011;65902;51.452;7.198;2023-03-13T05:00:00;3.55;;;3.08;;
76962;SDS011;65902;51.452;7.198;2023-03-13T05:01:03;4.47;;;2.63;;
76962;SDS011;65902;51.452;7.198;2023-03-13T05:02:09;7.50;;;3.17;;
76962;SDS011;65902;51.452;7.198;2023-03-13T05:03:14;3.90;;;2.83;;
76962;SDS011;65902;51.452;7.198;2023-03-13T05:04:18;6.47;;;4.38;;
76962;SDS011;65902;51.452;7.198;2023-03-13T05:05:19;4.57;;;3.30;;
76962;SDS011;65902;51.452;7.198;2023-03-13T05:06:19;3.83;;;2.58;;
76962;SDS011;65902;51.452;7.198;2023-03-13T05:07:20;4.25;;;3.47;;
76962;SDS011;65902;51.452;7.198;2023-03-13T05:08:25;3.35;;;2.67;;
76962;SDS011;65902;51.452;7.198;2023-03-13T05:09:26;3.25;;;2.28;;
76962;SDS011;65902;51.452;7.198;2023-03-13T05:10:26;6.47;;;2.30;;
76962;SDS011;65902;51.452;7.198;2023-03-13T05:11:32;6.22;;;3.53;;
76962;SDS011;65902;51.452;7.198;2023-03-13T05:12:33;6.18;;;2.65;;
76962;SDS011;65902;51.452;7.198;2023-03-13T05:13:33;4.43;;;2.90;;
76962;SDS011;65902;51.452;7.198;2023-03-13T05:15:39;3.42;;;2.40;;
76962;SDS011;65902;51.452;7.198;2023-03-13T05:16:45;4.22;;;2.35;;
76962;SDS011;65902;51.452;7.198;2023-03-13T05:17:46;3.35;;;3.05;;
76962;SDS011;65902;51.452;7.198;2023-03-13T05:18:51;3.50;;;3.20;;
76962;SDS011;65902;51.452;7.198;2023-03-13T05:20:02;4.15;;;2.83;;
76962;SDS011;65902;51.452;7.198;2023-03-13T05:21:09;6.35;;;3.53;;
76962;SDS011;65902;51.452;7.198;2023-03-13T05:22:11;3.88;;;2.72;;
76962;SDS011;65902;51.452;7.198;2023-03-13T05:23:12;3.90;;;2.90;;
76962;SDS011;65902;51.452;7.198;2023-03-13T05:24:15;6.10;;;2.55;;
76962;SDS011;65902;51.452;7.198;2023-03-13T05:25:16;3.67;;;2.85;;
76962;SDS011;65902;51.452;7.198;2023-03-13T05:26:17;3.85;;;2.72;;
76962;SDS011;65902;51.452;7.198;2023-03-13T05:27:22;4.43;;;3.25;;
76962;SDS011;65902;51.452;7.198;2023-03-13T05:28:25;3.45;;;2.75;;
76962;SDS011;65902;51.452;7.198;2023-03-13T05:29:28;6.18;;;2.60;;
76962;SDS011;65902;51.452;7.198;2023-03-13T05:30:29;4.30;;;3.80;;
76962;SDS011;65902;51.452;7.198;2023-03-13T05:31:32;4.05;;;3.15;;
76962;SDS011;65902;51.452;7.198;2023-03-13T05:32:33;4.38;;;3.97;;
76962;SDS011;65902;51.452;7.198;2023-03-13T05:33:37;3.85;;;2.92;;
76962;SDS011;65902;51.452;7.198;2023-03-13T05:34:43;4.22;;;3.78;;
76962;SDS011;65902;51.452;7.198;2023-03-13T05:35:46;3.78;;;2.85;;
76962;SDS011;65902;51.452;7.198;2023-03-13T05:36:47;4.32;;;3.10;;
76962;SDS011;65902;51.452;7.198;2023-03-13T05:37:51;3.75;;;2.83;;
76962;SDS011;65902;51.452;7.198;2023-03-13T05:38:51;5.50;;;4.93;;
76962;SDS011;65902;51.452;7.198;2023-03-13T05:39:54;4.10;;;3.53;;
76962;SDS011;65902;51.452;7.198;2023-03-13T05:40:55;3.55;;;2.88;;
76962;SDS011;65902;51.452;7.198;2023-03-13T05:41:58;3.47;;;2.80;;
76962;SDS011;65902;51.452;7.198;2023-03-13T05:42:59;6.63;;;3.17;;
76962;SDS011;65902;51.452;7.198;2023-03-13T05:44:02;4.30;;;2.97;;
76962;SDS011;65902;51.452;7.198;2023-03-13T05:45:03;6.53;;;3.08;;
76962;SDS011;65902;51.452;7.198;2023-03-13T05:46:04;4.03;;;3.30;;
76962;SDS011;65902;51.452;7.198;2023-03-13T05:47:10;4.28;;;2.80;;
76962;SDS011;65902;51.452;7.198;2023-03-13T05:48:12;5.13;;;4.20;;
76962;SDS011;65902;51.452;7.198;2023-03-13T05:49:17;3.53;;;2.78;;
76962;SDS011;65902;51.452;7.198;2023-03-13T05:50:18;4.72;;;3.30;;
76962;SDS011;65902;51.452;7.198;2023-03-13T05:51:21;3.85;;;2.88;;
76962;SDS011;65902;51.452;7.198;2023-03-13T05:52:22;6.03;;;3.25;;
76962;SDS011;65902;51.452;7.198;2023-03-13T05:53:23;3.33;;;2.67;;
76962;SDS011;65902;51.452;7.198;2023-03-13T05:54:27;4.05;;;2.85;;
76962;SDS011;65902;51.452;7.198;2023-03-13T05:55:33;3.20;;;2.45;;
76962;SDS011;65902;51.452;7.198;2023-03-13T05:56:33;5.85;;;4.15;;
76962;SDS011;65902;51.452;7.198;2023-03-13T05:57:39;4.47;;;3.55;;
76962;SDS011;65902;51.452;7.198;2023-03-13T05:58:44;5.93;;;3.95;;
76962;SDS011;65902;51.452;7.198;2023-03-13T05:59:45;7.53;;;3.72;;
76962;SDS011;65902;51.452;7.198;2023-03-13T06:00:50;4.05;;;3.65;;
76962;SDS011;65902;51.452;7.198;2023-03-13T06:01:53;5.35;;;3.42;;
76962;SDS011;65902;51.452;7.198;2023-03-13T06:02:54;4.65;;;2.40;;
76962;SDS011;65902;51.452;7.198;2023-03-13T06:03:57;4.25;;;2.72;;
76962;SDS011;65902;51.452;7.198;2023-03-13T06:05:01;4.70;;;3.33;;
76962;SDS011;65902;51.452;7.198;2023-03-13T06:06:01;4.20;;;3.00;;
76962;SDS011;65902;51.452;7.198;2023-03-13T06:07:05;3.42;;;2.63;;
76962;SDS011;65902;51.452;7.198;2023-03-13T06:08:06;5.22;;;3.58;;
76962;SDS011;65902;51.452;7.198;2023-03-13T06:09:07;4.10;;;3.22;;
76962;SDS011;65902;51.452;7.198;2023-03-13T06:10:11;4.38;;;3.10;;
76962;SDS011;65902;51.452;7.198;2023-03-13T06:18:28;4.50;;;3.35;;
76962;SDS011;65902;51.452;7.198;2023-03-13T06:19:33;7.35;;;3.53;;
76962;SDS011;65902;51.452;7.198;2023-03-13T06:20:36;4.10;;;3.25;;
76962;SDS011;65902;51.452;7.198;2023-03-13T06:21:42;3.95;;;3.28;;
76962;SDS011;65902;51.452;7.198;2023-03-13T06:22:45;5.35;;;3.35;;
76962;SDS011;65902;51.452;7.198;2023-03-13T06:23:45;4.20;;;2.92;;
76962;SDS011;65902;51.452;7.198;2023-03-13T06:24:58;4.72;;;3.13;;
76962;SDS011;65902;51.452;7.198;2023-03-13T06:26:01;6.70;;;3.28;;
76962;SDS011;65902;51.452;7.198;2023-03-13T06:27:02;3.83;;;3.38;;
76962;SDS011;65902;51.452;7.198;2023-03-13T06:28:08;4.13;;;3.33;;
76962;SDS011;65902;51.452;7.198;2023-03-13T06:29:19;3.40;;;2.65;;
76962;SDS011;65902;51.452;7.198;2023-03-13T06:30:23;4.10;;;2.78;;
76962;SDS011;65902;51.452;7.198;2023-03-13T06:31:25;4.60;;;3.40;;
76962;SDS011;65902;51.452;7.198;2023-03-13T06:32:33;5.45;;;4.72;;
76962;SDS011;65902;51.452;7.198;2023-03-13T06:33:37;4.90;;;3.28;;
76962;SDS011;65902;51.452;7.198;2023-03-13T06:34:37;5.60;;;2.63;;
76962;SDS011;65902;51.452;7.198;2023-03-13T06:35:41;4.75;;;3.13;;
76962;SDS011;65902;51.452;7.198;2023-03-13T06:36:45;5.32;;;2.92;;
76962;SDS011;65902;51.452;7.198;2023-03-13T06:37:48;3.72;;;2.90;;
76962;SDS011;65902;51.452;7.198;2023-03-13T06:38:49;6.47;;;3.45;;
76962;SDS011;65902;51.452;7.198;2023-03-13T06:39:52;3.28;;;2.40;;
76962;SDS011;65902;51.452;7.198;2023-03-13T06:40:53;3.58;;;2.88;;
76962;SDS011;65902;51.452;7.198;2023-03-13T06:41:56;3.42;;;2.63;;
76962;SDS011;65902;51.452;7.198;2023-03-13T06:43:00;4.35;;;3.25;;
76962;SDS011;65902;51.452;7.198;2023-03-13T06:44:01;4.32;;;3.58;;
76962;SDS011;65902;51.452;7.198;2023-03-13T06:45:04;3.88;;;2.90;;
76962;SDS011;65902;51.452;7.198;2023-03-13T06:46:05;4.30;;;2.88;;